createdAt,value
2022-08-19T00:00:44.975Z,49.70
2022-08-19T00:03:16.461Z,49.70
2022-08-19T00:05:45.325Z,49.80
2022-08-19T00:08:12.447Z,49.60
2022-08-19T00:10:44.088Z,49.70
2022-08-19T00:13:13.381Z,49.60
2022-08-19T00:15:40.436Z,49.70
2022-08-19T00:18:07.249Z,49.80
2022-08-19T00:20:36.548Z,49.80
2022-08-19T00:23:04.252Z,49.90
2022-08-19T00:25:33.486Z,49.90
2022-08-19T00:28:00.431Z,49.90
2022-08-19T00:30:30.487Z,49.90
2022-08-19T00:32:58.168Z,49.90
2022-08-19T00:35:29.849Z,49.90
2022-08-19T00:37:56.995Z,50.10
2022-08-19T00:40:24.051Z,49.90
2022-08-19T00:42:58.843Z,50.00
2022-08-19T00:45:37.056Z,50.10
2022-08-19T00:48:05.386Z,50.10
2022-08-19T00:50:51.924Z,49.90
2022-08-19T00:53:29.453Z,50.00
2022-08-19T00:56:00.830Z,50.20
2022-08-19T00:58:34.867Z,50.10
2022-08-19T01:01:05.725Z,50.10
2022-08-19T01:03:43.703Z,50.10
2022-08-19T01:06:22.455Z,50.20
2022-08-19T01:08:50.204Z,50.10
2022-08-19T01:11:17.708Z,50.20
2022-08-19T01:13:49.570Z,50.20
2022-08-19T01:16:21.220Z,50.20
2022-08-19T01:18:48.786Z,50.20
2022-08-19T01:21:32.029Z,50.20
2022-08-19T01:23:59.343Z,50.40
2022-08-19T01:26:29.420Z,50.30
2022-08-19T01:29:02.067Z,50.30
2022-08-19T01:31:32.684Z,50.30
2022-08-19T01:34:01.121Z,50.30
2022-08-19T01:36:40.368Z,50.40
2022-08-19T01:39:16.287Z,50.40
2022-08-19T01:41:43.195Z,50.50
2022-08-19T01:44:18.749Z,50.50
2022-08-19T01:46:51.221Z,50.50
2022-08-19T01:49:27.289Z,50.50
2022-08-19T01:51:57.589Z,50.60
2022-08-19T01:54:30.203Z,50.60
2022-08-19T01:57:05.975Z,50.50
2022-08-19T01:59:37.357Z,50.70
2022-08-19T02:02:09.674Z,50.70
2022-08-19T02:04:40.804Z,50.70
2022-08-19T02:07:08.939Z,50.60
2022-08-19T02:09:36.715Z,50.60
2022-08-19T02:12:08.785Z,50.70
2022-08-19T02:14:39.435Z,50.70
2022-08-19T02:17:09.825Z,50.70
2022-08-19T02:19:36.644Z,50.70
2022-08-19T02:22:10.264Z,50.70
2022-08-19T02:24:37.061Z,50.70
2022-08-19T02:27:06.751Z,50.80
2022-08-19T02:29:36.040Z,51.00
2022-08-19T02:32:05.371Z,51.30
2022-08-19T02:34:32.328Z,50.90
2022-08-19T02:37:03.763Z,51.00
2022-08-19T02:39:30.876Z,51.00
2022-08-19T02:42:03.099Z,51.10
2022-08-19T02:44:31.952Z,51.10
2022-08-19T02:47:01.269Z,51.10
2022-08-19T02:49:28.117Z,51.20
2022-08-19T02:51:57.424Z,51.20
2022-08-19T02:54:26.926Z,51.20
2022-08-19T02:56:56.008Z,51.20
2022-08-19T02:59:26.669Z,51.20
2022-08-19T03:01:58.431Z,51.30
2022-08-19T03:04:27.376Z,51.20
2022-08-19T03:06:55.543Z,51.20
2022-08-19T03:09:26.641Z,51.30
2022-08-19T03:11:55.987Z,51.40
2022-08-19T03:14:24.050Z,51.50
2022-08-19T03:16:53.334Z,51.50
2022-08-19T03:19:24.584Z,51.50
2022-08-19T03:21:53.151Z,51.50
2022-08-19T03:24:23.106Z,51.40
2022-08-19T03:26:59.435Z,51.60
2022-08-19T03:29:30.318Z,51.80
2022-08-19T03:32:05.544Z,51.80
2022-08-19T03:34:37.683Z,51.90
2022-08-19T03:37:13.085Z,51.90
2022-08-19T03:39:41.907Z,51.90
2022-08-19T03:42:38.663Z,51.90
2022-08-19T03:44:59.582Z,51.90
2022-08-19T03:47:26.481Z,51.90
2022-08-19T03:49:55.588Z,52.00
2022-08-19T03:52:24.499Z,52.10
2022-08-19T03:54:56.278Z,52.10
2022-08-19T03:57:27.821Z,52.20
2022-08-19T04:00:12.766Z,52.20
2022-08-19T04:02:56.500Z,52.30
2022-08-19T04:05:31.383Z,52.20
2022-08-19T04:08:01.515Z,52.30
2022-08-19T04:10:31.294Z,52.30
2022-08-19T04:12:58.107Z,52.30
2022-08-19T04:15:27.379Z,52.30
2022-08-19T04:17:56.608Z,52.50
2022-08-19T04:20:25.856Z,52.30
2022-08-19T04:22:52.890Z,52.50
2022-08-19T04:25:19.843Z,52.50
2022-08-19T04:27:47.298Z,52.50
2022-08-19T04:30:15.153Z,52.50
2022-08-19T04:32:44.525Z,52.50
2022-08-19T04:35:17.970Z,52.50
2022-08-19T04:37:49.409Z,52.50
2022-08-19T04:40:37.466Z,52.50
2022-08-19T04:43:06.500Z,52.60
2022-08-19T04:45:38.802Z,52.60
2022-08-19T04:48:27.561Z,52.70
2022-08-19T04:51:00.867Z,52.90
2022-08-19T04:53:39.964Z,52.80
2022-08-19T04:56:18.081Z,53.10
2022-08-19T04:58:46.285Z,53.00
2022-08-19T05:01:19.050Z,53.10
2022-08-19T05:03:45.937Z,53.20
2022-08-19T05:06:17.852Z,53.10
2022-08-19T05:08:48.228Z,53.30
2022-08-19T05:11:26.447Z,53.20
2022-08-19T05:13:57.146Z,53.30
2022-08-19T05:16:27.552Z,53.30
2022-08-19T05:19:14.698Z,53.40
2022-08-19T05:22:02.100Z,53.40
2022-08-19T05:24:35.107Z,53.40
2022-08-19T05:27:03.572Z,53.40
2022-08-19T05:29:36.302Z,53.40
2022-08-19T05:32:09.666Z,53.50
2022-08-19T05:34:36.771Z,53.60
2022-08-19T05:37:05.438Z,53.60
2022-08-19T05:39:36.956Z,53.70
2022-08-19T05:42:10.837Z,53.70
2022-08-19T05:44:49.960Z,53.60
2022-08-19T05:47:21.193Z,53.60
2022-08-19T05:49:50.735Z,53.60
2022-08-19T05:52:19.339Z,53.70
2022-08-19T05:54:51.876Z,53.70
2022-08-19T05:57:23.769Z,53.70
2022-08-19T05:59:58.729Z,53.70
2022-08-19T06:02:31.626Z,53.70
2022-08-19T06:04:58.875Z,53.80
2022-08-19T06:07:25.972Z,53.70
2022-08-19T06:10:00.436Z,53.70
2022-08-19T06:12:35.947Z,53.60
2022-08-19T06:15:14.684Z,53.50
2022-08-19T06:17:42.772Z,53.70
2022-08-19T06:20:15.784Z,53.60
2022-08-19T06:22:50.640Z,53.60
2022-08-19T06:25:18.010Z,53.60
2022-08-19T06:28:11.912Z,53.50
2022-08-19T06:30:34.505Z,53.60
2022-08-19T06:33:03.705Z,53.50
2022-08-19T06:35:30.646Z,53.50
2022-08-19T06:38:00.291Z,53.50
2022-08-19T06:40:35.222Z,53.50
2022-08-19T06:43:03.675Z,53.50
2022-08-19T06:45:39.252Z,53.40
2022-08-19T06:48:08.609Z,53.40
2022-08-19T06:50:40.960Z,53.30
2022-08-19T06:53:10.390Z,53.40
2022-08-19T06:55:38.608Z,53.30
2022-08-19T06:58:06.133Z,53.30
2022-08-19T07:00:37.547Z,53.20
2022-08-19T07:03:07.789Z,53.20
2022-08-19T07:05:45.489Z,53.20
2022-08-19T07:08:15.276Z,53.20
2022-08-19T07:10:47.012Z,53.20
2022-08-19T07:13:18.689Z,53.20
2022-08-19T07:15:47.328Z,53.20
2022-08-19T07:18:16.906Z,53.10
2022-08-19T07:20:49.021Z,53.10
2022-08-19T07:23:17.986Z,53.10
2022-08-19T07:25:45.044Z,53.00
2022-08-19T07:28:24.431Z,53.00
2022-08-19T07:30:55.466Z,53.00
2022-08-19T07:33:22.362Z,53.00
2022-08-19T07:35:51.743Z,52.90
2022-08-19T07:38:18.512Z,53.00
2022-08-19T07:40:47.095Z,52.90
2022-08-19T07:43:17.384Z,52.80
2022-08-19T07:45:46.314Z,52.70
2022-08-19T07:48:13.384Z,52.70
2022-08-19T07:50:40.197Z,52.70
2022-08-19T07:53:09.182Z,52.60
2022-08-19T07:55:42.549Z,53.10
2022-08-19T07:58:18.804Z,52.40
2022-08-19T08:00:48.894Z,52.30
2022-08-19T08:03:19.930Z,52.20
2022-08-19T08:06:05.576Z,52.10
2022-08-19T08:08:52.913Z,52.00
2022-08-19T08:11:24.215Z,51.90
2022-08-19T08:14:00.976Z,51.60
2022-08-19T08:16:39.368Z,51.60
2022-08-19T08:19:14.864Z,51.70
2022-08-19T08:21:56.151Z,51.70
2022-08-19T08:24:28.533Z,51.70
2022-08-19T08:27:04.767Z,51.50
2022-08-19T08:29:42.699Z,51.40
2022-08-19T08:32:14.706Z,51.30
2022-08-19T08:34:47.434Z,51.10
2022-08-19T08:37:19.237Z,51.00
2022-08-19T08:39:46.040Z,51.50
2022-08-19T08:42:35.966Z,50.70
2022-08-19T08:45:17.628Z,50.20
2022-08-19T08:47:55.545Z,50.10
2022-08-19T08:50:29.921Z,50.10
2022-08-19T08:53:00.397Z,50.00
2022-08-19T08:55:36.895Z,49.90
2022-08-19T08:58:21.560Z,49.70
2022-08-19T09:00:51.989Z,49.40
2022-08-19T09:03:27.558Z,49.50
2022-08-19T09:06:11.959Z,49.40
2022-08-19T09:09:12.176Z,49.10
2022-08-19T09:11:44.531Z,49.10
2022-08-19T09:14:49.740Z,49.20
2022-08-19T09:17:28.392Z,48.90
2022-08-19T09:20:02.767Z,48.60
2022-08-19T09:22:29.659Z,48.60
2022-08-19T09:24:59.305Z,48.40
2022-08-19T09:27:42.117Z,48.00
2022-08-19T09:30:23.562Z,47.80
2022-08-19T09:32:58.626Z,47.50
2022-08-19T09:35:30.941Z,47.70
2022-08-19T09:38:00.084Z,47.90
2022-08-19T09:40:37.756Z,47.90
2022-08-19T09:43:10.112Z,47.80
2022-08-19T09:45:39.979Z,47.90
2022-08-19T09:48:07.110Z,47.90
2022-08-19T09:50:51.822Z,48.00
2022-08-19T09:53:19.825Z,47.90
2022-08-19T09:55:46.660Z,47.60
2022-08-19T09:58:26.640Z,47.50
2022-08-19T10:00:54.592Z,47.10
2022-08-19T10:03:22.043Z,47.10
2022-08-19T10:06:14.784Z,47.10
2022-08-19T10:08:50.208Z,46.80
2022-08-19T10:11:27.954Z,46.90
2022-08-19T10:14:07.600Z,46.90
2022-08-19T10:16:40.932Z,46.70
2022-08-19T10:19:10.478Z,46.50
2022-08-19T10:21:37.596Z,46.40
2022-08-19T10:24:09.827Z,46.40
2022-08-19T10:26:42.903Z,46.40
2022-08-19T10:29:12.682Z,46.40
2022-08-19T10:32:00.127Z,46.20
2022-08-19T10:34:30.697Z,45.60
2022-08-19T10:37:01.183Z,45.70
2022-08-19T10:39:42.365Z,45.30
2022-08-19T10:42:14.644Z,45.40
2022-08-19T10:44:42.673Z,45.60
2022-08-19T10:47:22.059Z,45.60
2022-08-19T10:50:14.051Z,45.50
2022-08-19T10:52:49.750Z,45.40
2022-08-19T10:55:42.598Z,45.30
2022-08-19T10:58:23.140Z,45.40
2022-08-19T11:01:01.800Z,45.20
2022-08-19T11:03:30.300Z,44.70
2022-08-19T11:06:08.887Z,44.90
2022-08-19T11:08:38.474Z,44.20
2022-08-19T11:11:09.969Z,44.20
2022-08-19T11:13:41.962Z,43.70
2022-08-19T11:16:14.945Z,43.50
2022-08-19T11:18:46.667Z,43.30
2022-08-19T11:21:21.966Z,43.30
2022-08-19T11:23:54.587Z,43.50
2022-08-19T11:26:23.797Z,43.40
2022-08-19T11:28:55.905Z,43.70
2022-08-19T11:31:29.184Z,43.50
2022-08-19T11:34:05.159Z,43.20
2022-08-19T11:36:35.380Z,42.30
2022-08-19T11:39:04.396Z,42.30
2022-08-19T11:41:33.723Z,42.00
2022-08-19T11:44:04.078Z,42.00
2022-08-19T11:46:33.644Z,42.10
2022-08-19T11:49:04.129Z,41.50
2022-08-19T11:51:32.355Z,41.50
2022-08-19T11:54:02.849Z,41.30
2022-08-19T11:56:29.970Z,40.90
2022-08-19T11:58:57.771Z,40.60
2022-08-19T12:01:27.313Z,40.20
2022-08-19T12:03:57.930Z,40.00
2022-08-19T12:06:32.571Z,40.40
2022-08-19T12:09:06.318Z,39.50
2022-08-19T12:11:34.529Z,39.30
2022-08-19T12:14:01.977Z,39.40
2022-08-19T12:16:33.514Z,39.10
2022-08-19T12:19:05.070Z,38.80
2022-08-19T12:21:37.753Z,38.60
2022-08-19T12:24:08.721Z,38.40
2022-08-19T12:26:36.061Z,38.10
2022-08-19T12:29:30.481Z,38.40
2022-08-19T12:32:02.146Z,38.30
2022-08-19T12:34:34.135Z,38.10
2022-08-19T12:37:08.645Z,37.40
2022-08-19T12:39:42.867Z,37.10
2022-08-19T12:42:12.377Z,37.50
2022-08-19T12:44:44.365Z,37.20
2022-08-19T12:47:14.766Z,37.30
2022-08-19T12:49:53.867Z,37.30
2022-08-19T12:52:27.995Z,37.00
2022-08-19T12:54:59.517Z,36.70
2022-08-19T12:57:33.462Z,36.60
2022-08-19T13:00:15.484Z,36.20
2022-08-19T13:02:46.862Z,35.30
2022-08-19T13:05:23.806Z,35.00
2022-08-19T13:07:56.984Z,34.40
2022-08-19T13:10:37.813Z,34.70
2022-08-19T13:13:13.045Z,34.60
2022-08-19T13:15:46.083Z,34.20
2022-08-19T13:18:16.099Z,34.50
2022-08-19T13:20:52.798Z,34.80
2022-08-19T13:23:20.086Z,34.90
2022-08-19T13:25:58.677Z,34.80
2022-08-19T13:28:29.054Z,34.50
2022-08-19T13:31:14.546Z,35.00
2022-08-19T13:33:41.327Z,34.20
2022-08-19T13:36:08.685Z,34.10
2022-08-19T13:38:40.163Z,33.90
2022-08-19T13:41:13.267Z,33.80
2022-08-19T13:43:42.379Z,33.60
2022-08-19T13:46:14.909Z,33.80
2022-08-19T13:48:43.089Z,33.80
2022-08-19T13:51:14.240Z,33.90
2022-08-19T13:53:48.166Z,33.80
2022-08-19T13:56:26.494Z,33.70
2022-08-19T13:58:54.636Z,33.80
2022-08-19T14:01:25.673Z,33.80
2022-08-19T14:03:54.798Z,33.60
2022-08-19T14:06:24.036Z,33.90
2022-08-19T14:08:53.707Z,33.90
2022-08-19T14:11:20.557Z,33.80
2022-08-19T14:13:47.465Z,33.80
2022-08-19T14:16:15.491Z,33.70
2022-08-19T14:18:47.266Z,33.70
2022-08-19T14:21:24.589Z,33.70
2022-08-19T14:23:56.487Z,33.80
2022-08-19T14:26:24.231Z,33.80
2022-08-19T14:28:58.100Z,33.80
2022-08-19T14:31:30.266Z,33.70
2022-08-19T14:33:57.614Z,33.70
2022-08-19T14:36:24.871Z,33.60
2022-08-19T14:38:54.164Z,33.60
2022-08-19T14:41:24.000Z,33.60
2022-08-19T14:43:54.049Z,33.50
2022-08-19T14:46:29.645Z,33.50
2022-08-19T14:48:59.947Z,33.40
2022-08-19T14:51:29.736Z,33.70
2022-08-19T14:53:57.269Z,34.80
2022-08-19T14:56:30.389Z,34.20
2022-08-19T14:59:01.902Z,34.10
2022-08-19T15:01:31.862Z,34.20
2022-08-19T15:04:03.671Z,33.80
2022-08-19T15:06:31.294Z,33.40
2022-08-19T15:09:03.868Z,33.10
2022-08-19T15:11:33.851Z,32.60
2022-08-19T15:14:03.447Z,32.40
2022-08-19T15:16:35.305Z,31.60
2022-08-19T15:19:02.387Z,31.30
2022-08-19T15:21:30.908Z,31.30
2022-08-19T15:23:59.618Z,31.00
2022-08-19T15:26:33.230Z,30.80
2022-08-19T15:29:03.005Z,30.70
2022-08-19T15:31:32.826Z,30.60
2022-08-19T15:33:59.682Z,30.70
2022-08-19T15:36:27.733Z,30.10
2022-08-19T15:38:58.575Z,29.80
2022-08-19T15:41:30.990Z,30.00
2022-08-19T15:44:00.988Z,29.80
2022-08-19T15:46:31.852Z,30.00
2022-08-19T15:49:02.383Z,30.20
2022-08-19T15:51:35.474Z,30.00
2022-08-19T15:54:14.822Z,30.30
2022-08-19T15:57:00.691Z,30.20
2022-08-19T15:59:48.244Z,30.50
2022-08-19T16:02:38.422Z,30.60
2022-08-19T16:05:31.664Z,30.40
2022-08-19T16:08:03.355Z,30.10
2022-08-19T16:10:33.353Z,30.20
2022-08-19T16:13:02.834Z,30.00
2022-08-19T16:15:36.758Z,29.90
2022-08-19T16:18:08.004Z,29.90
2022-08-19T16:20:35.641Z,29.70
2022-08-19T16:23:07.879Z,29.60
2022-08-19T16:25:36.914Z,29.60
2022-08-19T16:28:07.094Z,29.70
2022-08-19T16:30:37.391Z,29.60
2022-08-19T16:33:10.044Z,29.50
2022-08-19T16:35:37.731Z,29.40
2022-08-19T16:38:05.819Z,29.60
2022-08-19T16:40:34.359Z,29.60
2022-08-19T16:43:09.649Z,29.50
2022-08-19T16:45:38.972Z,29.50
2022-08-19T16:48:13.415Z,29.50
2022-08-19T16:50:49.185Z,29.70
2022-08-19T16:53:29.078Z,29.70
2022-08-19T16:55:59.456Z,29.60
2022-08-19T16:58:33.893Z,29.90
2022-08-19T17:01:05.572Z,29.90
2022-08-19T17:03:36.501Z,29.70
2022-08-19T17:06:20.163Z,29.80
2022-08-19T17:08:50.598Z,29.80
2022-08-19T17:11:27.028Z,29.80
2022-08-19T17:13:58.873Z,29.80
2022-08-19T17:16:30.184Z,29.60
2022-08-19T17:19:00.125Z,30.20
2022-08-19T17:21:31.988Z,29.80
2022-08-19T17:24:02.905Z,29.80
2022-08-19T17:26:32.668Z,29.80
2022-08-19T17:29:00.647Z,29.70
2022-08-19T17:31:32.769Z,29.80
2022-08-19T17:34:00.142Z,29.70
2022-08-19T17:36:32.393Z,29.70
2022-08-19T17:39:02.528Z,29.80
2022-08-19T17:41:30.476Z,30.50
2022-08-19T17:44:00.730Z,30.00
2022-08-19T17:46:30.088Z,30.00
2022-08-19T17:48:57.781Z,30.00
2022-08-19T17:51:35.074Z,30.00
2022-08-19T17:54:05.324Z,30.00
2022-08-19T17:56:34.816Z,30.00
2022-08-19T17:59:01.859Z,30.10
2022-08-19T18:01:44.101Z,30.20
2022-08-19T18:04:19.599Z,30.30
2022-08-19T18:06:53.297Z,30.20
2022-08-19T18:09:28.289Z,30.30
2022-08-19T18:12:03.950Z,30.50
2022-08-19T18:14:40.561Z,30.50
2022-08-19T18:17:15.262Z,30.40
2022-08-19T18:19:44.384Z,30.50
2022-08-19T18:22:23.919Z,30.50
2022-08-19T18:24:59.391Z,30.70
2022-08-19T18:27:27.895Z,30.80
2022-08-19T18:29:59.393Z,30.70
2022-08-19T18:32:38.195Z,30.80
2022-08-19T18:35:13.082Z,30.80
2022-08-19T18:37:43.238Z,30.90
2022-08-19T18:40:38.428Z,31.10
2022-08-19T18:43:26.261Z,31.20
2022-08-19T18:46:12.362Z,31.20
2022-08-19T18:49:06.505Z,31.30
2022-08-19T18:51:34.335Z,31.40
2022-08-19T18:54:03.907Z,31.40
2022-08-19T18:56:36.656Z,31.40
2022-08-19T18:59:03.943Z,31.50
2022-08-19T19:01:52.452Z,31.60
2022-08-19T19:04:33.436Z,31.80
2022-08-19T19:07:00.316Z,31.90
2022-08-19T19:09:28.352Z,31.80
2022-08-19T19:12:00.243Z,31.90
2022-08-19T19:14:50.620Z,32.10
2022-08-19T19:17:26.635Z,32.10
2022-08-19T19:19:53.652Z,32.10
2022-08-19T19:22:23.441Z,32.20
2022-08-19T19:24:51.817Z,32.30
2022-08-19T19:27:23.354Z,32.30
2022-08-19T19:29:58.749Z,32.40
2022-08-19T19:32:38.804Z,32.50
2022-08-19T19:35:11.331Z,32.60
2022-08-19T19:37:45.645Z,32.60
2022-08-19T19:40:13.416Z,32.70
2022-08-19T19:42:40.506Z,32.70
2022-08-19T19:45:11.130Z,32.80
2022-08-19T19:47:44.544Z,32.80
2022-08-19T19:50:15.289Z,32.90
2022-08-19T19:52:48.422Z,32.90
2022-08-19T19:55:19.732Z,33.10
2022-08-19T19:57:49.306Z,33.20
2022-08-19T20:00:20.198Z,33.10
2022-08-19T20:02:50.680Z,33.20
2022-08-19T20:05:22.949Z,33.40
2022-08-19T20:08:12.609Z,33.40
2022-08-19T20:10:43.868Z,33.50
2022-08-19T20:13:15.676Z,33.60
2022-08-19T20:15:45.916Z,33.70
2022-08-19T20:18:14.817Z,33.70
2022-08-19T20:20:46.672Z,33.80
2022-08-19T20:23:16.670Z,33.90
2022-08-19T20:25:44.243Z,34.00
2022-08-19T20:28:12.711Z,34.00
2022-08-19T20:30:45.588Z,34.10
2022-08-19T20:33:15.913Z,34.10
2022-08-19T20:35:45.333Z,34.90
2022-08-19T20:38:13.037Z,34.20
2022-08-19T20:40:41.321Z,34.30
2022-08-19T20:43:13.927Z,34.40
2022-08-19T20:45:41.824Z,34.50
2022-08-19T20:48:12.426Z,34.50
2022-08-19T20:50:40.606Z,34.60
2022-08-19T20:53:19.455Z,34.60
2022-08-19T20:55:50.961Z,34.80
2022-08-19T20:58:21.312Z,34.80
2022-08-19T21:00:50.038Z,34.80
2022-08-19T21:03:23.700Z,34.90
2022-08-19T21:05:51.294Z,34.90
2022-08-19T21:08:24.856Z,34.90
2022-08-19T21:10:56.000Z,35.10
2022-08-19T21:13:26.387Z,35.00
2022-08-19T21:15:54.131Z,35.10
2022-08-19T21:18:25.462Z,35.10
2022-08-19T21:20:58.730Z,35.20
2022-08-19T21:23:33.567Z,35.30
2022-08-19T21:26:02.485Z,35.30
2022-08-19T21:28:36.479Z,35.30
2022-08-19T21:31:12.174Z,35.40
2022-08-19T21:33:41.029Z,35.60
2022-08-19T21:36:11.616Z,35.60
2022-08-19T21:38:41.262Z,35.70
2022-08-19T21:41:12.617Z,35.80
2022-08-19T21:43:42.246Z,35.90
2022-08-19T21:46:09.478Z,35.90
2022-08-19T21:48:37.443Z,36.00
2022-08-19T21:51:08.748Z,36.10
2022-08-19T21:53:37.248Z,36.10
2022-08-19T21:56:10.908Z,36.30
2022-08-19T21:58:37.973Z,36.30
2022-08-19T22:01:07.726Z,36.40
2022-08-19T22:03:38.568Z,36.50
2022-08-19T22:06:06.682Z,36.70
2022-08-19T22:08:34.725Z,36.90
2022-08-19T22:11:06.218Z,36.90
2022-08-19T22:13:40.153Z,37.00
2022-08-19T22:16:08.759Z,37.10
2022-08-19T22:18:38.333Z,37.20
2022-08-19T22:21:11.426Z,37.20
2022-08-19T22:23:41.475Z,37.40
2022-08-19T22:26:15.409Z,37.40
2022-08-19T22:28:47.502Z,37.50
2022-08-19T22:31:19.044Z,37.70
2022-08-19T22:33:46.199Z,37.80
2022-08-19T22:36:14.538Z,37.90
2022-08-19T22:38:43.922Z,38.00
2022-08-19T22:41:13.222Z,38.00
2022-08-19T22:43:49.821Z,38.20
2022-08-19T22:46:17.843Z,38.30
2022-08-19T22:48:46.760Z,38.30
2022-08-19T22:51:37.073Z,38.40
2022-08-19T22:54:04.667Z,38.60
2022-08-19T22:56:34.735Z,38.60
2022-08-19T22:59:05.205Z,38.70
2022-08-19T23:01:35.918Z,38.80
2022-08-19T23:04:05.605Z,39.10
2022-08-19T23:06:40.227Z,39.00
2022-08-19T23:09:16.693Z,39.00
2022-08-19T23:11:44.008Z,39.10
2022-08-19T23:14:12.397Z,39.30
2022-08-19T23:16:41.365Z,39.40
2022-08-19T23:19:09.283Z,39.40
2022-08-19T23:21:36.155Z,39.70
2022-08-19T23:24:09.607Z,39.80
2022-08-19T23:26:37.444Z,40.00
2022-08-19T23:29:24.536Z,40.00
2022-08-19T23:31:53.649Z,40.00
2022-08-19T23:34:24.836Z,40.10
2022-08-19T23:36:51.620Z,40.40
2022-08-19T23:39:20.757Z,40.30
2022-08-19T23:41:47.547Z,40.30
2022-08-19T23:44:17.427Z,40.50
2022-08-19T23:46:54.713Z,40.80
2022-08-19T23:49:25.561Z,40.90
2022-08-19T23:51:56.985Z,40.90
2022-08-19T23:54:42.659Z,41.10
2022-08-19T23:57:15.393Z,41.20
2022-08-19T23:59:45.242Z,41.30
